South Haven, Michigan
Current Conditions -  °F | °C
As of 3:34 AM on Saturday 20 Dec 2014 (Local Time) from KLWA Reporting Station
Scattered Clouds Scattered Clouds  
Wind Chill: 20°   Ceiling: Unl
Heat Index: 20°   Visibility: 7mi
Dew Point: 18°   Wind: 0mph
Humidity: 91%   Direction: NA
Pressure: 30.28"   Gusts: NA
Location:  42.4°N, 86.27°W
Report Text: KLWA 200834Z AUTO 00000KT 7SM SCT029 M07/M08 A3028 RMK AO2 T10671079
Loading
Personal Weather Stations






























Interactive Weather Map New forecast layout! Learn more

10-Day Weather Forecast

Advertisements
Track Severe Weather on mobile